x

Buoy F01 - West Penobscot Bay (44033) Wave Buoy

8:04 - Sun 23rd Apr 2017 All times are EDT. -4 hours from GMT.

  • Sig Wave height 1.3ft
  • Peak Period 3s
  • Wind
    13mph, 16mph gusts
  • Sea Temp 43°f
  • Aire Temp 44°f
  • Sea Pressure 1016.7mb
  • Buoy F01 - West Penobscot Bay
  • Buoy F01 - West Penobscot Bay

More Historic Weather Station data

Upgrade to MSW Pro to gain access to the past 30 days of data for over 8000 Wavebouys and Weather Stations around the globe.

Join Pro

Comparision Forecast

View Surf forecast
   
dom 04/23 8:04 1.3ft 3s 13 16 mph 1016.7mb 43f 44f
7:04 1ft 3s 13 16 mph 1016.5mb 43f 44f
6:04 2.5ft 8s 13 16 mph 1016.2mb 43f 44f
5:04 1ft 3s 13 16 mph 1016.5mb 41f 45f
4:04 1ft 3s 13 16 mph 1016.5mb 41f 45f
3:04 1.6ft 6s 11 13 mph 1017mb 41f 44f
12:04 2ft 8s 9
mph
1017.3mb 43f 43f
11:04 2.5ft 8s 2 4 mph 1017.4mb 42f 44f
10:04 2ft 11s 4
mph
1017.1mb 42f 42f
9:04 2ft 8s 2
mph
1017mb 41f 41f
sáb 04/22 2:04 4ft 6s 11 13 mph 1014.7mb 41f 38f
1:04 4.5ft 6s 11 13 mph 1015mb 42f 38f
12:04 3.5ft 6s 9 11 mph 1015.2mb 42f 38f
11:04 3.5ft 5s 11 13 mph 1015.8mb 42f 39f
10:04 3.5ft 6s 11 13 mph 1015.9mb 42f 39f
9:04 4ft 6s 13 16 mph 1016.2mb 41f 39f
8:04 3.5ft 6s 11 16 mph 1016.5mb 41f 39f
5:04 3.5ft 5s 16 20 mph 1016.6mb 41f 39f
3:04 3ft 6s 13 16 mph 1017.5mb 42f 39f
2:04  -   -  13 16 mph 1017.8mb - 39f
1:04 2.5ft 6s 13 16 mph 1018.4mb 42f 40f
vie 04/21 11:04  -   -  9 11 mph 1019.1mb - 40f
9:04  -   -  16 18 mph 1018.7mb - 40f
8:04 2.5ft 6s 18 22 mph 1018.6mb 42f 40f
7:04 3ft 5s 16 20 mph 1018.8mb 42f 40f
6:04 3.5ft 5s 16 18 mph 1019.5mb 42f 40f
5:04  -   -  18 22 mph 1019.8mb - 40f
12:04  -   -  16 20 mph 1021.9mb - 40f
11:04  -   -  13 18 mph 1022.2mb - 40f
10:04 2.5ft 5s 13 16 mph 1022mb 42f 40f
9:04 2ft 5s 13 16 mph 1021.7mb 41f 40f
8:04 2ft 5s 11 13 mph 1022.3mb 41f 40f
7:04 2ft 5s 9 11 mph 1022.6mb 41f 40f
6:04 2ft 5s 11 13 mph 1022.4mb 41f 39f
5:04 1.6ft 5s 11 13 mph 1022mb 41f 40f
4:04  -   -  9 11 mph 1022.2mb - 40f
2:04 2.5ft 8s 9
mph
1022.9mb 41f 40f
1:04 1.6ft 5s 9 11 mph 1023.2mb 41f 40f
12:04 2.5ft 5s 9 11 mph 1023mb 42f 40f
jue 04/20 11:04 2.5ft 5s 11
mph
1022.4mb 41f 41f
10:04 2.5ft 5s 9 11 mph 1023mb 42f 41f
9:04  -   -  9 11 mph 1022.7mb - 42f
8:04  -   -  11 13 mph 1022.3mb - 42f
7:04 2.5ft 5s  -  mph - 41f -
5:04 2.5ft 5s  -  mph - 42f -
3:04 2.5ft 6s 2 4 mph 1021.2mb 43f 43f
2:04 2.5ft 5s 4
mph
1021.1mb 43f 43f
12:04 2.5ft 5s 4 7 mph 1021.3mb 42f 42f
11:04 3ft 6s 7
mph
1021.1mb 42f 42f
10:04 3ft 6s 4 7 mph 1021.5mb 41f 42f
9:04 3.5ft 6s  -  mph - 41f -
8:04 3.5ft 6s  -  mph - 41f -
7:04 3.5ft 6s  -  mph - 41f -
3:04 4.5ft 6s 20 25 mph 1022.1mb 41f 40f
2:04 5ft 6s 22 25 mph 1022.7mb 41f 40f